createdAt,value
2022-11-20T00:00:16.359Z,43.20
2022-11-20T00:02:42.692Z,46.15
2022-11-20T00:05:09.349Z,42.90
2022-11-20T00:07:35.775Z,46.28
2022-11-20T00:10:02.692Z,46.05
2022-11-20T00:12:29.032Z,45.35
2022-11-20T00:14:55.552Z,52.83
2022-11-20T00:17:23.404Z,46.47
2022-11-20T00:19:49.739Z,50.00
2022-11-20T00:22:16.087Z,45.25
2022-11-20T00:24:43.251Z,48.97
2022-11-20T00:27:09.777Z,45.92
2022-11-20T00:29:36.144Z,45.53
2022-11-20T00:32:02.548Z,48.47
2022-11-20T00:34:28.891Z,49.22
2022-11-20T00:36:55.211Z,48.70
2022-11-20T00:39:22.018Z,49.17
2022-11-20T00:41:48.687Z,47.67
2022-11-20T00:44:15.014Z,48.45
2022-11-20T00:46:41.441Z,44.83
2022-11-20T00:49:07.943Z,46.20
2022-11-20T00:51:34.265Z,48.33
2022-11-20T00:54:01.123Z,55.15
2022-11-20T00:56:27.767Z,45.38
2022-11-20T00:58:54.240Z,46.83
2022-11-20T01:01:30.042Z,51.38
2022-11-20T01:03:57.853Z,46.70
2022-11-20T01:06:24.232Z,47.40
2022-11-20T01:08:51.410Z,46.65
2022-11-20T01:11:19.287Z,44.45
2022-11-20T01:13:46.431Z,45.75
2022-11-20T01:16:14.006Z,48.80
2022-11-20T01:18:41.531Z,51.15
2022-11-20T01:21:15.626Z,43.50
2022-11-20T01:23:42.665Z,44.35
2022-11-20T01:26:10.993Z,50.60
2022-11-20T01:28:37.903Z,50.90
2022-11-20T01:31:24.645Z,47.90
2022-11-20T01:33:52.490Z,49.00
2022-11-20T01:36:19.712Z,52.63
2022-11-20T01:38:46.065Z,47.75
2022-11-20T01:41:33.152Z,43.85
2022-11-20T01:43:59.874Z,46.92
2022-11-20T01:46:26.301Z,55.00
2022-11-20T01:49:01.576Z,55.97
2022-11-20T01:51:43.199Z,56.60
2022-11-20T01:54:11.686Z,57.92
2022-11-20T01:56:39.260Z,57.63
2022-11-20T01:59:06.949Z,49.10
2022-11-20T02:01:33.606Z,51.05
2022-11-20T02:04:00.681Z,54.95
2022-11-20T02:06:29.262Z,58.60
2022-11-20T02:08:55.685Z,61.88
2022-11-20T02:11:22.310Z,52.88
2022-11-20T02:13:49.161Z,55.10
2022-11-20T02:16:17.464Z,63.10
2022-11-20T02:18:44.363Z,57.15
2022-11-20T02:21:13.878Z,57.30
2022-11-20T02:23:44.545Z,53.85
2022-11-20T02:26:13.363Z,49.88
2022-11-20T02:28:39.816Z,58.05
2022-11-20T02:31:06.217Z,56.08
2022-11-20T02:33:32.594Z,55.17
2022-11-20T02:35:59.000Z,49.60
2022-11-20T02:38:25.361Z,59.50
2022-11-20T02:40:55.575Z,54.70
2022-11-20T02:43:22.429Z,57.00
2022-11-20T02:45:48.894Z,57.45
2022-11-20T02:48:15.273Z,47.47
2022-11-20T02:50:41.907Z,53.33
2022-11-20T02:53:08.355Z,46.30
2022-11-20T02:55:34.819Z,50.55
2022-11-20T02:58:01.237Z,48.17
2022-11-20T03:00:27.615Z,48.85
2022-11-20T03:02:53.970Z,49.30
2022-11-20T03:05:20.339Z,48.67
2022-11-20T03:07:46.803Z,48.20
2022-11-20T03:10:13.230Z,53.17
2022-11-20T03:12:39.588Z,49.13
2022-11-20T03:15:06.125Z,45.60
2022-11-20T03:17:32.690Z,50.67
2022-11-20T03:19:59.034Z,48.90
2022-11-20T03:22:25.426Z,49.78
2022-11-20T03:24:52.142Z,57.78
2022-11-20T03:27:18.494Z,50.08
2022-11-20T03:29:44.952Z,44.50
2022-11-20T03:32:11.292Z,51.55
2022-11-20T03:34:37.872Z,47.85
2022-11-20T03:37:04.244Z,48.72
2022-11-20T03:39:30.662Z,45.05
2022-11-20T03:41:57.010Z,47.85
2022-11-20T03:44:23.551Z,44.13
2022-11-20T03:46:49.971Z,54.35
2022-11-20T03:49:16.452Z,50.47
2022-11-20T03:51:42.788Z,47.45
2022-11-20T03:54:09.511Z,53.00
2022-11-20T03:56:37.386Z,54.47
2022-11-20T03:59:04.531Z,39.95
2022-11-20T04:01:32.222Z,46.13
2022-11-20T04:03:58.994Z,43.47
2022-11-20T04:06:26.688Z,50.50
2022-11-20T04:08:54.831Z,45.95
2022-11-20T04:11:23.253Z,45.78
2022-11-20T04:13:51.053Z,47.90
2022-11-20T04:16:17.888Z,41.72
2022-11-20T04:18:44.805Z,45.20
2022-11-20T04:21:11.519Z,44.40
2022-11-20T04:23:38.172Z,42.22
2022-11-20T04:26:06.395Z,43.92
2022-11-20T04:28:32.901Z,43.55
2022-11-20T04:31:07.600Z,43.08
2022-11-20T04:33:34.588Z,36.58
2022-11-20T04:36:20.766Z,41.97
2022-11-20T04:38:51.348Z,41.05
2022-11-20T04:41:21.461Z,36.22
2022-11-20T04:43:51.164Z,40.83
2022-11-20T04:46:18.429Z,42.50
2022-11-20T04:48:44.973Z,44.63
2022-11-20T04:51:11.523Z,40.17
2022-11-20T04:53:37.872Z,40.53
2022-11-20T04:56:05.882Z,41.45
2022-11-20T04:58:32.520Z,37.45
2022-11-20T05:01:06.375Z,38.55
2022-11-20T05:03:33.179Z,39.38
2022-11-20T05:06:06.353Z,36.83
2022-11-20T05:08:33.522Z,40.08
2022-11-20T05:11:09.266Z,42.92
2022-11-20T05:13:36.146Z,38.80
2022-11-20T05:16:03.820Z,37.22
2022-11-20T05:18:30.170Z,42.53
2022-11-20T05:20:57.601Z,43.97
2022-11-20T05:23:24.215Z,42.17
2022-11-20T05:25:58.550Z,47.75
2022-11-20T05:30:51.928Z,39.97
2022-11-20T05:33:18.689Z,45.30
2022-11-20T05:35:45.063Z,37.80
2022-11-20T05:38:11.466Z,36.55
2022-11-20T05:40:37.868Z,42.53
2022-11-20T05:43:04.253Z,32.72
2022-11-20T05:45:30.629Z,42.22
2022-11-20T05:48:01.164Z,37.30
2022-11-20T05:50:28.347Z,36.00
2022-11-20T05:52:54.829Z,31.52
2022-11-20T05:55:21.311Z,38.63
2022-11-20T05:57:47.688Z,39.35
2022-11-20T06:00:14.563Z,36.78
2022-11-20T06:02:41.057Z,42.05
2022-11-20T06:05:07.686Z,38.13
2022-11-20T06:07:34.469Z,29.90
2022-11-20T06:10:00.854Z,38.40
2022-11-20T06:12:27.217Z,36.40
2022-11-20T06:14:53.614Z,34.75
2022-11-20T06:17:19.976Z,38.20
2022-11-20T06:19:46.302Z,35.85
2022-11-20T06:22:12.736Z,37.03
2022-11-20T06:24:39.356Z,35.10
2022-11-20T06:27:05.744Z,36.92
2022-11-20T06:29:34.099Z,37.53
2022-11-20T06:32:00.783Z,39.92
2022-11-20T06:34:27.160Z,37.67
2022-11-20T06:36:53.567Z,35.42
2022-11-20T06:39:20.651Z,39.75
2022-11-20T06:41:47.239Z,35.70
2022-11-20T06:44:13.620Z,35.95
2022-11-20T06:46:40.026Z,33.38
2022-11-20T06:49:06.896Z,33.90
2022-11-20T06:51:33.347Z,33.97
2022-11-20T06:53:59.747Z,33.28
2022-11-20T06:56:26.084Z,33.95
2022-11-20T06:58:52.500Z,35.28
2022-11-20T07:01:19.026Z,37.70
2022-11-20T07:03:48.000Z,35.13
2022-11-20T07:06:17.835Z,36.60
2022-11-20T07:08:44.233Z,40.65
2022-11-20T07:11:12.745Z,30.95
2022-11-20T07:13:39.148Z,33.45
2022-11-20T07:16:07.378Z,35.13
2022-11-20T07:18:33.916Z,31.75
2022-11-20T07:21:04.315Z,34.63
2022-11-20T07:23:30.691Z,31.63
2022-11-20T07:25:57.080Z,30.33
2022-11-20T07:28:23.469Z,33.33
2022-11-20T07:30:53.647Z,40.35
2022-11-20T07:33:20.784Z,36.53
2022-11-20T07:35:47.268Z,34.15
2022-11-20T07:38:13.802Z,33.97
2022-11-20T07:40:40.168Z,32.58
2022-11-20T07:43:06.515Z,38.85
2022-11-20T07:45:32.881Z,34.22
2022-11-20T07:47:59.223Z,39.88
2022-11-20T07:50:25.583Z,39.70
2022-11-20T07:52:51.995Z,31.45
2022-11-20T07:55:18.444Z,37.05
2022-11-20T07:57:44.824Z,37.90
2022-11-20T08:00:11.920Z,37.63
2022-11-20T08:02:39.855Z,43.30
2022-11-20T08:05:06.747Z,36.50
2022-11-20T08:07:40.095Z,34.05
2022-11-20T08:10:07.299Z,51.65
2022-11-20T08:12:52.520Z,57.33
2022-11-20T08:15:19.083Z,80.22
2022-11-20T08:17:56.979Z,62.30
2022-11-20T08:20:32.061Z,46.13
2022-11-20T08:22:59.659Z,36.83
2022-11-20T08:25:26.205Z,33.05
2022-11-20T08:27:55.379Z,29.17
2022-11-20T08:30:24.218Z,26.90
2022-11-20T08:32:50.690Z,30.33
2022-11-20T08:35:17.143Z,25.40
2022-11-20T08:37:46.674Z,24.38
2022-11-20T08:40:18.370Z,23.75
2022-11-20T08:42:49.668Z,21.83
2022-11-20T08:45:16.893Z,32.45
2022-11-20T08:47:43.675Z,31.50
2022-11-20T08:50:10.832Z,28.20
2022-11-20T08:52:39.841Z,31.42
2022-11-20T08:55:07.066Z,43.38
2022-11-20T08:57:33.861Z,35.28
2022-11-20T09:00:07.592Z,35.60
2022-11-20T09:02:34.099Z,43.13
2022-11-20T09:05:00.485Z,53.88
2022-11-20T09:07:26.863Z,31.08
2022-11-20T09:10:16.480Z,23.92
2022-11-20T09:12:39.750Z,21.40
2022-11-20T09:15:06.350Z,16.35
2022-11-20T09:17:33.306Z,15.02
2022-11-20T09:19:59.762Z,18.27
2022-11-20T09:22:26.173Z,15.80
2022-11-20T09:24:52.507Z,15.73
2022-11-20T09:27:22.572Z,14.40
2022-11-20T09:29:49.080Z,15.25
2022-11-20T09:32:15.476Z,14.93
2022-11-20T09:34:41.899Z,16.48
2022-11-20T09:37:08.276Z,19.77
2022-11-20T09:39:35.424Z,18.48
2022-11-20T09:42:12.179Z,18.63
2022-11-20T09:44:53.723Z,21.67
2022-11-20T09:47:38.231Z,16.95
2022-11-20T09:50:22.645Z,18.25
2022-11-20T09:53:08.116Z,20.88
2022-11-20T09:55:35.040Z,19.20
2022-11-20T09:58:01.449Z,21.73
2022-11-20T10:00:29.126Z,24.08
2022-11-20T10:03:04.058Z,20.67
2022-11-20T10:05:42.642Z,20.92
2022-11-20T10:08:10.605Z,25.00
2022-11-20T10:10:57.313Z,21.48
2022-11-20T10:13:26.768Z,22.10
2022-11-20T10:16:11.870Z,22.83
2022-11-20T10:18:54.240Z,19.10
2022-11-20T10:21:23.591Z,19.63
2022-11-20T10:24:01.949Z,22.95
2022-11-20T10:26:28.395Z,22.88
2022-11-20T10:29:09.010Z,21.85
2022-11-20T10:31:37.479Z,22.75
2022-11-20T10:34:13.070Z,21.85
2022-11-20T10:36:53.186Z,22.55
2022-11-20T10:39:29.803Z,25.48
2022-11-20T10:41:57.189Z,24.27
2022-11-20T10:44:45.844Z,22.40
2022-11-20T10:47:16.925Z,25.80
2022-11-20T10:49:44.586Z,21.35
2022-11-20T10:52:13.728Z,22.90
2022-11-20T10:54:55.475Z,22.48
2022-11-20T10:57:40.812Z,27.63
2022-11-20T11:00:10.170Z,24.25
2022-11-20T11:02:44.398Z,22.38
2022-11-20T11:05:34.214Z,24.52
2022-11-20T11:08:00.857Z,24.52
2022-11-20T11:10:37.525Z,24.48
2022-11-20T11:13:04.324Z,31.63
2022-11-20T11:15:37.291Z,26.75
2022-11-20T11:18:04.174Z,29.60
2022-11-20T11:20:30.516Z,22.98
2022-11-20T11:22:57.788Z,25.50
2022-11-20T11:25:27.276Z,21.67
2022-11-20T11:27:56.048Z,23.23
2022-11-20T11:30:23.022Z,17.98
2022-11-20T11:32:49.503Z,21.45
2022-11-20T11:35:29.157Z,23.42
2022-11-20T11:38:03.152Z,21.17
2022-11-20T11:40:31.932Z,23.70
2022-11-20T11:42:59.949Z,25.85
2022-11-20T11:45:26.641Z,23.55
2022-11-20T11:47:55.109Z,24.40
2022-11-20T11:50:25.825Z,24.85
2022-11-20T11:52:58.436Z,25.00
2022-11-20T11:55:43.642Z,19.55
2022-11-20T11:58:28.910Z,23.08
2022-11-20T12:01:02.425Z,23.70
2022-11-20T12:03:36.585Z,21.10
2022-11-20T12:06:06.525Z,26.20
2022-11-20T12:08:33.014Z,24.83
2022-11-20T12:11:11.645Z,24.35
2022-11-20T12:13:43.799Z,23.50
2022-11-20T12:16:12.759Z,26.55
2022-11-20T12:18:40.005Z,23.42
2022-11-20T12:21:21.208Z,21.35
2022-11-20T12:23:59.742Z,20.88
2022-11-20T12:26:32.232Z,22.23
2022-11-20T12:29:07.602Z,18.23
2022-11-20T12:34:06.434Z,18.92
2022-11-20T12:36:32.796Z,19.25
2022-11-20T12:39:10.070Z,19.92
2022-11-20T12:42:14.532Z,18.63
2022-11-20T12:45:02.718Z,19.92
2022-11-20T12:47:29.043Z,18.10
2022-11-20T12:50:27.576Z,20.95
2022-11-20T12:52:59.837Z,26.33
2022-11-20T12:55:32.603Z,23.00
2022-11-20T12:58:02.145Z,26.95
2022-11-20T13:00:28.544Z,24.67
2022-11-20T13:03:10.210Z,24.95
2022-11-20T13:05:51.956Z,26.27
2022-11-20T13:08:32.702Z,27.85
2022-11-20T13:11:02.936Z,28.63
2022-11-20T13:13:32.274Z,27.33
2022-11-20T13:16:01.747Z,28.00
2022-11-20T13:18:28.503Z,32.70
2022-11-20T13:20:54.970Z,30.05
2022-11-20T13:23:28.599Z,30.90
2022-11-20T13:26:05.294Z,31.08
2022-11-20T13:28:31.821Z,31.00
2022-11-20T13:30:58.762Z,31.25
2022-11-20T13:33:30.552Z,34.22
2022-11-20T13:36:06.527Z,31.27
2022-11-20T13:38:47.562Z,32.20
2022-11-20T13:41:30.069Z,32.10
2022-11-20T13:44:26.208Z,33.58
2022-11-20T13:46:52.726Z,35.47
2022-11-20T13:49:22.316Z,31.92
2022-11-20T13:51:51.674Z,32.97
2022-11-20T13:54:21.788Z,31.65
2022-11-20T13:56:54.608Z,29.60
2022-11-20T13:59:33.282Z,29.13
2022-11-20T14:02:00.875Z,30.15
2022-11-20T14:04:31.196Z,27.80
2022-11-20T14:06:58.041Z,30.45
2022-11-20T14:09:31.383Z,30.77
2022-11-20T14:11:58.648Z,29.02
2022-11-20T14:14:29.130Z,24.95
2022-11-20T14:17:19.199Z,28.95
2022-11-20T14:19:46.445Z,24.70
2022-11-20T14:22:20.552Z,24.55
2022-11-20T14:24:47.770Z,23.10
2022-11-20T14:27:15.437Z,22.23
2022-11-20T14:29:42.544Z,22.80
2022-11-20T14:32:09.974Z,23.38
2022-11-20T14:34:41.540Z,23.95
2022-11-20T14:37:16.506Z,22.25
2022-11-20T14:39:48.663Z,24.23
2022-11-20T14:42:28.937Z,26.13
2022-11-20T14:44:56.884Z,22.35
2022-11-20T14:47:24.995Z,22.52
2022-11-20T14:49:52.387Z,25.90
2022-11-20T14:52:20.199Z,25.42
2022-11-20T14:54:47.691Z,25.85
2022-11-20T14:57:30.784Z,22.98
2022-11-20T15:00:15.105Z,27.77
2022-11-20T15:02:46.107Z,27.58
2022-11-20T15:05:12.876Z,24.67
2022-11-20T15:07:44.420Z,29.55
2022-11-20T15:10:12.924Z,28.02
2022-11-20T15:12:48.623Z,27.63
2022-11-20T15:15:17.845Z,28.38
2022-11-20T15:17:44.201Z,28.75
2022-11-20T15:20:14.077Z,28.98
2022-11-20T15:22:40.447Z,34.30
2022-11-20T15:25:14.411Z,31.33
2022-11-20T15:27:40.838Z,29.33
2022-11-20T15:30:18.178Z,34.88
2022-11-20T15:32:45.091Z,31.58
2022-11-20T15:35:11.586Z,32.10
2022-11-20T15:37:38.783Z,34.70
2022-11-20T15:40:05.762Z,29.65
2022-11-20T15:42:32.202Z,32.53
2022-11-20T15:44:58.584Z,30.60
2022-11-20T15:47:30.885Z,30.75
2022-11-20T15:49:57.229Z,31.38
2022-11-20T15:52:23.620Z,34.28
2022-11-20T15:54:49.955Z,32.83
2022-11-20T15:57:16.327Z,28.98
2022-11-20T15:59:42.739Z,27.02
2022-11-20T16:02:18.757Z,27.33
2022-11-20T16:04:45.708Z,32.38
2022-11-20T16:07:12.109Z,28.23
2022-11-20T16:09:38.521Z,32.22
2022-11-20T16:12:05.052Z,25.60
2022-11-20T16:14:50.053Z,27.83
2022-11-20T16:17:16.413Z,31.63
2022-11-20T16:19:42.724Z,28.98
2022-11-20T16:22:11.513Z,29.63
2022-11-20T16:24:37.893Z,29.83
2022-11-20T16:27:04.306Z,30.90
2022-11-20T16:29:30.663Z,29.40
2022-11-20T16:31:57.689Z,27.25
2022-11-20T16:34:24.232Z,27.02
2022-11-20T16:36:50.805Z,31.63
2022-11-20T16:39:23.073Z,25.20
2022-11-20T16:41:50.109Z,28.95
2022-11-20T16:44:16.525Z,26.13
2022-11-20T16:46:42.950Z,28.27
2022-11-20T16:49:13.708Z,27.40
2022-11-20T16:51:40.076Z,25.58
2022-11-20T16:54:08.124Z,28.00
2022-11-20T16:56:34.740Z,25.67
2022-11-20T16:59:02.504Z,24.80
2022-11-20T17:01:29.286Z,25.10
2022-11-20T17:04:03.127Z,24.85
2022-11-20T17:06:31.603Z,22.52
2022-11-20T17:08:58.136Z,24.45
2022-11-20T17:11:24.763Z,25.02
2022-11-20T17:13:51.678Z,22.70
2022-11-20T17:16:19.283Z,23.38
2022-11-20T17:18:46.045Z,22.73
2022-11-20T17:21:12.893Z,24.23
2022-11-20T17:23:40.350Z,21.35
2022-11-20T17:26:10.956Z,22.23
2022-11-20T17:28:38.236Z,20.77
2022-11-20T17:31:08.984Z,21.95
2022-11-20T17:33:36.366Z,21.90
2022-11-20T17:36:03.630Z,22.52
2022-11-20T17:38:30.018Z,21.88
2022-11-20T17:41:15.962Z,23.80
2022-11-20T17:43:45.393Z,21.80
2022-11-20T17:46:16.635Z,19.38
2022-11-20T17:48:44.198Z,18.45
2022-11-20T17:51:12.428Z,18.70
2022-11-20T17:53:40.856Z,21.23
2022-11-20T17:56:28.515Z,19.10
2022-11-20T17:58:55.315Z,22.13
2022-11-20T18:01:22.427Z,25.83
2022-11-20T18:03:48.939Z,22.60
2022-11-20T18:06:22.714Z,22.25
2022-11-20T18:08:50.044Z,24.58
2022-11-20T18:11:20.753Z,25.20
2022-11-20T18:14:06.618Z,21.95
2022-11-20T18:16:34.403Z,25.50
2022-11-20T18:19:00.756Z,27.00
2022-11-20T18:21:27.925Z,22.88
2022-11-20T18:23:54.836Z,23.55
2022-11-20T18:26:21.139Z,25.77
2022-11-20T18:28:47.567Z,27.10
2022-11-20T18:31:14.062Z,28.48
2022-11-20T18:33:40.490Z,30.00
2022-11-20T18:36:14.272Z,27.50
2022-11-20T18:38:41.685Z,30.52
2022-11-20T18:41:08.494Z,29.40
2022-11-20T18:43:55.168Z,31.40
2022-11-20T18:46:21.990Z,28.23
2022-11-20T18:48:48.373Z,30.00
2022-11-20T18:51:16.385Z,29.65
2022-11-20T18:53:47.159Z,25.95
2022-11-20T18:56:13.900Z,27.25
2022-11-20T18:58:41.316Z,26.70
2022-11-20T19:01:08.190Z,29.35
2022-11-20T19:03:34.697Z,30.63
2022-11-20T19:06:01.085Z,29.85
2022-11-20T19:08:27.684Z,26.88
2022-11-20T19:10:54.033Z,28.27
2022-11-20T19:13:20.410Z,29.88
2022-11-20T19:15:46.830Z,33.88
2022-11-20T19:18:13.192Z,29.15
2022-11-20T19:20:39.637Z,37.88
2022-11-20T19:23:06.027Z,34.15
2022-11-20T19:25:37.766Z,33.92
2022-11-20T19:28:04.648Z,29.52
2022-11-20T19:30:30.986Z,32.47
2022-11-20T19:32:58.081Z,30.65
2022-11-20T19:35:24.635Z,37.00
2022-11-20T19:37:51.506Z,38.45
2022-11-20T19:40:17.920Z,37.90
2022-11-20T19:42:44.262Z,43.53
2022-11-20T19:45:10.632Z,42.38
2022-11-20T19:48:06.023Z,44.33
2022-11-20T19:50:23.505Z,45.45
2022-11-20T19:52:52.005Z,48.40
2022-11-20T19:55:22.217Z,43.05
2022-11-20T19:57:48.540Z,43.40
2022-11-20T20:00:20.784Z,42.38
2022-11-20T20:02:53.743Z,47.50
2022-11-20T20:05:20.121Z,46.67
2022-11-20T20:07:46.476Z,46.72
2022-11-20T20:10:13.054Z,46.30
2022-11-20T20:12:39.369Z,50.63
2022-11-20T20:15:06.423Z,51.50
2022-11-20T20:17:32.763Z,44.97
2022-11-20T20:19:59.065Z,49.38
2022-11-20T20:22:25.455Z,38.78
2022-11-20T20:24:52.196Z,45.00
2022-11-20T20:27:18.533Z,43.35
2022-11-20T20:29:44.914Z,41.83
2022-11-20T20:32:11.298Z,41.70
2022-11-20T20:34:37.747Z,42.90
2022-11-20T20:37:05.164Z,43.33
2022-11-20T20:39:31.628Z,42.97
2022-11-20T20:41:57.981Z,41.25
2022-11-20T20:44:43.197Z,35.75
2022-11-20T20:47:09.507Z,36.78
2022-11-20T20:49:35.937Z,40.22
2022-11-20T20:52:02.342Z,38.67
2022-11-20T20:54:34.087Z,35.53
2022-11-20T20:57:00.740Z,40.35
2022-11-20T20:59:27.118Z,40.72
2022-11-20T21:01:53.497Z,41.80
2022-11-20T21:04:19.911Z,40.20
2022-11-20T21:06:46.300Z,38.50
2022-11-20T21:09:12.680Z,36.17
2022-11-20T21:11:39.729Z,38.05
2022-11-20T21:14:06.144Z,40.63
2022-11-20T21:16:41.082Z,40.58
2022-11-20T21:19:07.932Z,41.10
2022-11-20T21:21:52.962Z,40.30
2022-11-20T21:24:19.354Z,36.45
2022-11-20T21:26:45.848Z,35.15
2022-11-20T21:29:12.491Z,37.45
2022-11-20T21:31:38.989Z,40.20
2022-11-20T21:34:05.379Z,36.38
2022-11-20T21:36:31.938Z,36.88
2022-11-20T21:39:01.742Z,39.40
2022-11-20T21:41:30.164Z,37.55
2022-11-20T21:46:44.140Z,34.58
2022-11-20T21:49:10.737Z,37.00
2022-11-20T21:51:37.447Z,38.03
2022-11-20T21:54:03.844Z,41.13
2022-11-20T21:56:30.385Z,36.90
2022-11-20T21:58:56.778Z,37.97
2022-11-20T22:01:27.512Z,42.13
2022-11-20T22:03:56.750Z,37.13
2022-11-20T22:06:23.949Z,36.38
2022-11-20T22:08:50.701Z,36.58
2022-11-20T22:11:18.206Z,37.88
2022-11-20T22:14:03.529Z,35.42
2022-11-20T22:16:29.919Z,35.45
2022-11-20T22:18:57.207Z,35.92
2022-11-20T22:21:24.830Z,39.95
2022-11-20T22:23:51.436Z,40.63
2022-11-20T22:26:19.205Z,41.22
2022-11-20T22:28:49.461Z,38.65
2022-11-20T22:31:16.342Z,37.72
2022-11-20T22:33:42.910Z,39.67
2022-11-20T22:36:09.206Z,36.58
2022-11-20T22:38:39.289Z,35.88
2022-11-20T22:41:09.899Z,40.45
2022-11-20T22:43:36.359Z,42.10
2022-11-20T22:46:06.698Z,37.72
2022-11-20T22:48:33.764Z,37.88
2022-11-20T22:51:10.470Z,34.17
2022-11-20T22:53:37.378Z,36.15
2022-11-20T22:56:06.696Z,34.78
2022-11-20T22:58:33.608Z,37.28
2022-11-20T23:01:26.475Z,37.67
2022-11-20T23:03:57.258Z,35.97
2022-11-20T23:06:24.040Z,38.80
2022-11-20T23:08:50.602Z,37.33
2022-11-20T23:11:24.276Z,38.88
2022-11-20T23:13:55.084Z,35.40
2022-11-20T23:16:21.485Z,35.90
2022-11-20T23:18:47.943Z,38.47
2022-11-20T23:21:18.108Z,36.65
2022-11-20T23:23:48.043Z,37.83
2022-11-20T23:26:15.186Z,36.92
2022-11-20T23:28:42.186Z,42.08
2022-11-20T23:31:09.242Z,41.08
2022-11-20T23:33:36.468Z,36.05
2022-11-20T23:36:02.992Z,41.83
2022-11-20T23:38:29.452Z,37.90
2022-11-20T23:40:55.842Z,25.45
2022-11-20T23:43:22.576Z,26.10
2022-11-20T23:45:50.216Z,31.95
2022-11-20T23:48:16.843Z,32.72
2022-11-20T23:50:43.861Z,36.97
2022-11-20T23:53:10.929Z,38.17
2022-11-20T23:55:37.600Z,39.03
2022-11-20T23:58:04.489Z,34.95
